sensor_id;sensor_type;location;lat;lon;timestamp;pressure;altitude;pressure_sealevel;temperature;humidity
79000;BME280;68406;53.914;27.416;2023-09-30T00:01:10;990.1;;;15.8;64.8
79000;BME280;68406;53.914;27.416;2023-09-30T00:05:36;990.1;;;15.7;65
79000;BME280;68406;53.914;27.416;2023-09-30T00:10:56;990;;;15.6;65.2
79000;BME280;68406;53.914;27.416;2023-09-30T00:15:30;990;;;15.6;65.3
79000;BME280;68406;53.914;27.416;2023-09-30T00:20:56;990;;;15.5;65.4
79000;BME280;68406;53.914;27.416;2023-09-30T00:26:10;989.9;;;15.5;65.6
79000;BME280;68406;53.914;27.416;2023-09-30T00:30:48;989.9;;;15.5;65.3
79000;BME280;68406;53.914;27.416;2023-09-30T00:35:56;989.9;;;15.5;65.2
79000;BME280;68406;53.914;27.416;2023-09-30T00:40:30;989.8;;;15.5;65.2
79000;BME280;68406;53.914;27.416;2023-09-30T00:45:30;989.8;;;15.5;65.3
79000;BME280;68406;53.914;27.416;2023-09-30T00:51:10;989.8;;;15.4;65.4
79000;BME280;68406;53.914;27.416;2023-09-30T00:55:36;989.8;;;15.4;65.6
79000;BME280;68406;53.914;27.416;2023-09-30T01:00:30;989.8;;;15.4;65.7
79000;BME280;68406;53.914;27.416;2023-09-30T01:05:48;989.7;;;15.3;65.8
79000;BME280;68406;53.914;27.416;2023-09-30T01:10:44;989.7;;;15.2;66.1
79000;BME280;68406;53.914;27.416;2023-09-30T01:16:10;989.6;;;15.1;66.3
79000;BME280;68406;53.914;27.416;2023-09-30T01:20:48;989.6;;;15.1;66.6
79000;BME280;68406;53.914;27.416;2023-09-30T01:25:56;989.6;;;15;66.8
79000;BME280;68406;53.914;27.416;2023-09-30T01:30:46;989.5;;;14.9;66.9
79000;BME280;68406;53.914;27.416;2023-09-30T01:35:42;989.5;;;14.9;67
79000;BME280;68406;53.914;27.416;2023-09-30T01:41:10;989.5;;;14.9;67.1
79000;BME280;68406;53.914;27.416;2023-09-30T01:45:30;989.5;;;14.9;67.1
79000;BME280;68406;53.914;27.416;2023-09-30T01:50:38;989.4;;;14.9;66.9
79000;BME280;68406;53.914;27.416;2023-09-30T01:55:42;989.4;;;14.9;66.9
79000;BME280;68406;53.914;27.416;2023-09-30T02:00:44;989.4;;;14.8;66.8
79000;BME280;68406;53.914;27.416;2023-09-30T02:06:10;989.3;;;14.8;66.8
79000;BME280;68406;53.914;27.416;2023-09-30T02:10:40;989.3;;;14.8;66.8
79000;BME280;68406;53.914;27.416;2023-09-30T02:15:39;989.2;;;14.8;66.9
79000;BME280;68406;53.914;27.416;2023-09-30T02:20:48;989.2;;;14.7;67.1
79000;BME280;68406;53.914;27.416;2023-09-30T02:25:42;989.2;;;14.7;67.3
79000;BME280;68406;53.914;27.416;2023-09-30T02:31:10;989.2;;;14.6;67.3
79000;BME280;68406;53.914;27.416;2023-09-30T02:35:54;989.1;;;14.6;67.5
79000;BME280;68406;53.914;27.416;2023-09-30T02:40:43;989.1;;;14.5;67.6
79000;BME280;68406;53.914;27.416;2023-09-30T02:46:08;989;;;14.5;67.8
79000;BME280;68406;53.914;27.416;2023-09-30T02:50:36;988.9;;;14.4;67.9
79000;BME280;68406;53.914;27.416;2023-09-30T02:56:08;988.9;;;14.4;67.9
79000;BME280;68406;53.914;27.416;2023-09-30T03:01:13;988.8;;;14.4;67.9
79000;BME280;68406;53.914;27.416;2023-09-30T03:05:56;988.8;;;14.4;67.9
79000;BME280;68406;53.914;27.416;2023-09-30T03:10:56;988.7;;;14.4;67.9
79000;BME280;68406;53.914;27.416;2023-09-30T03:15:30;988.7;;;14.4;67.8
79000;BME280;68406;53.914;27.416;2023-09-30T03:20:58;988.7;;;14.4;67.8
79000;BME280;68406;53.914;27.416;2023-09-30T03:25:30;988.7;;;14.4;67.8
79000;BME280;68406;53.914;27.416;2023-09-30T03:30:36;988.7;;;14.4;67.7
79000;BME280;68406;53.914;27.416;2023-09-30T03:36:08;988.7;;;14.3;67.7
79000;BME280;68406;53.914;27.416;2023-09-30T03:40:46;988.6;;;14.3;67.9
79000;BME280;68406;53.914;27.416;2023-09-30T03:46:10;988.6;;;14.3;68
79000;BME280;68406;53.914;27.416;2023-09-30T03:51:10;988.5;;;14.2;68.2
79000;BME280;68406;53.914;27.416;2023-09-30T03:55:56;988.5;;;14.2;68.3
79000;BME280;68406;53.914;27.416;2023-09-30T04:00:56;988.5;;;14.2;68.3
79000;BME280;68406;53.914;27.416;2023-09-30T04:05:36;988.4;;;14.2;68.3
79000;BME280;68406;53.914;27.416;2023-09-30T04:10:56;988.4;;;14.2;68.2
79000;BME280;68406;53.914;27.416;2023-09-30T04:16:10;988.4;;;14.2;68.2
79000;BME280;68406;53.914;27.416;2023-09-30T04:20:36;988.4;;;14.3;67.9
79000;BME280;68406;53.914;27.416;2023-09-30T04:26:10;988.4;;;14.3;67.6
79000;BME280;68406;53.914;27.416;2023-09-30T04:30:49;988.4;;;14.4;67.3
79000;BME280;68406;53.914;27.416;2023-09-30T04:36:10;988.4;;;14.4;67
79000;BME280;68406;53.914;27.416;2023-09-30T04:41:10;988.3;;;14.5;66.7
79000;BME280;68406;53.914;27.416;2023-09-30T04:45:56;988.3;;;14.6;66.4
79000;BME280;68406;53.914;27.416;2023-09-30T04:50:56;988.3;;;14.6;66.2
79000;BME280;68406;53.914;27.416;2023-09-30T04:55:42;988.3;;;14.7;66
79000;BME280;68406;53.914;27.416;2023-09-30T05:00:54;988.3;;;14.7;65.7
79000;BME280;68406;53.914;27.416;2023-09-30T05:05:42;988.3;;;14.8;65.3
79000;BME280;68406;53.914;27.416;2023-09-30T05:10:36;988.3;;;14.9;65.1
79000;BME280;68406;53.914;27.416;2023-09-30T05:16:00;988.3;;;15;64.7
79000;BME280;68406;53.914;27.416;2023-09-30T05:20:30;988.3;;;15.1;64.4
79000;BME280;68406;53.914;27.416;2023-09-30T05:26:10;988.3;;;15.1;64.1
79000;BME280;68406;53.914;27.416;2023-09-30T05:31:08;988.2;;;15.2;63.7
79000;BME280;68406;53.914;27.416;2023-09-30T05:36:08;988.3;;;15.3;63.4
79000;BME280;68406;53.914;27.416;2023-09-30T05:40:54;988.3;;;15.4;63.1
79000;BME280;68406;53.914;27.416;2023-09-30T05:45:42;988.3;;;15.5;62.8
79000;BME280;68406;53.914;27.416;2023-09-30T05:50:56;988.3;;;15.5;62.7
79000;BME280;68406;53.914;27.416;2023-09-30T05:55:36;988.3;;;15.5;62.6
79000;BME280;68406;53.914;27.416;2023-09-30T06:00:36;988.3;;;15.6;62.6
79000;BME280;68406;53.914;27.416;2023-09-30T06:06:11;988.3;;;15.7;62.2
79000;BME280;68406;53.914;27.416;2023-09-30T06:10:48;988.2;;;15.8;62
79000;BME280;68406;53.914;27.416;2023-09-30T06:16:10;988.2;;;15.8;61.9
79000;BME280;68406;53.914;27.416;2023-09-30T06:21:06;988.2;;;15.8;61.9
79000;BME280;68406;53.914;27.416;2023-09-30T06:25:54;988.1;;;15.9;61.9
79000;BME280;68406;53.914;27.416;2023-09-30T06:30:44;988.1;;;16;61.9
79000;BME280;68406;53.914;27.416;2023-09-30T06:35:42;988;;;16.1;61.7
79000;BME280;68406;53.914;27.416;2023-09-30T06:41:02;988;;;16.3;61.4
79000;BME280;68406;53.914;27.416;2023-09-30T06:45:30;988;;;16.6;60.9
79000;BME280;68406;53.914;27.416;2023-09-30T06:50:36;987.9;;;16.8;60.4
79000;BME280;68406;53.914;27.416;2023-09-30T06:56:04;988;;;17.1;59.7
79000;BME280;68406;53.914;27.416;2023-09-30T07:00:49;987.9;;;17.4;59.1
79000;BME280;68406;53.914;27.416;2023-09-30T07:06:10;987.9;;;17.7;58.4
79000;BME280;68406;53.914;27.416;2023-09-30T07:11:02;987.9;;;18;57.6
79000;BME280;68406;53.914;27.416;2023-09-30T07:16:10;987.9;;;18.4;57
79000;BME280;68406;53.914;27.416;2023-09-30T07:21:11;987.9;;;18.5;57
79000;BME280;68406;53.914;27.416;2023-09-30T07:25:42;987.9;;;18.7;56.8
79000;BME280;68406;53.914;27.416;2023-09-30T07:30:37;988;;;18.9;56.8
79000;BME280;68406;53.914;27.416;2023-09-30T07:35:31;988;;;19;56.8
79000;BME280;68406;53.914;27.416;2023-09-30T07:40:56;988;;;19.2;56.7
79000;BME280;68406;53.914;27.416;2023-09-30T07:45:50;988;;;19.4;56.3
79000;BME280;68406;53.914;27.416;2023-09-30T07:50:36;988;;;19.7;55.8
79000;BME280;68406;53.914;27.416;2023-09-30T07:56:10;987.9;;;20;55.4
79000;BME280;68406;53.914;27.416;2023-09-30T08:01:02;987.9;;;20.1;54.8
79000;BME280;68406;53.914;27.416;2023-09-30T08:06:08;987.9;;;20.2;54.5
79000;BME280;68406;53.914;27.416;2023-09-30T08:11:08;987.8;;;20.4;54.1
79000;BME280;68406;53.914;27.416;2023-09-30T08:15:30;987.8;;;20.6;53.4
79000;BME280;68406;53.914;27.416;2023-09-30T08:20:30;987.8;;;20.7;53
79000;BME280;68406;53.914;27.416;2023-09-30T08:25:46;987.7;;;21;52.3
79000;BME280;68406;53.914;27.416;2023-09-30T08:30:37;987.7;;;21.2;51.7
79000;BME280;68406;53.914;27.416;2023-09-30T08:36:01;987.7;;;21.4;51
79000;BME280;68406;53.914;27.416;2023-09-30T08:40:47;987.6;;;21.6;50.1
79000;BME280;68406;53.914;27.416;2023-09-30T08:46:08;987.6;;;21.8;49.5
79000;BME280;68406;53.914;27.416;2023-09-30T08:50:39;987.6;;;21.8;48.8
79000;BME280;68406;53.914;27.416;2023-09-30T08:56:07;987.6;;;22;48.5
79000;BME280;68406;53.914;27.416;2023-09-30T09:01:09;987.6;;;22.1;48.1
79000;BME280;68406;53.914;27.416;2023-09-30T09:05:37;987.5;;;22.2;47.8
79000;BME280;68406;53.914;27.416;2023-09-30T09:10:31;987.5;;;22.5;47.5
79000;BME280;68406;53.914;27.416;2023-09-30T09:15:31;987.5;;;22.7;46.9
79000;BME280;68406;53.914;27.416;2023-09-30T09:20:30;987.5;;;22.9;46.6
79000;BME280;68406;53.914;27.416;2023-09-30T09:26:01;987.5;;;23.1;46.4
79000;BME280;68406;53.914;27.416;2023-09-30T09:30:39;987.5;;;23.3;46.3
79000;BME280;68406;53.914;27.416;2023-09-30T09:36:09;987.5;;;23.6;45.3
79000;BME280;68406;53.914;27.416;2023-09-30T09:41:01;987.5;;;23.7;44.9
79000;BME280;68406;53.914;27.416;2023-09-30T09:46:07;987.5;;;24;44
79000;BME280;68406;53.914;27.416;2023-09-30T09:51:11;987.4;;;24;43.3
79000;BME280;68406;53.914;27.416;2023-09-30T09:55:43;987.4;;;24.3;42.6
79000;BME280;68406;53.914;27.416;2023-09-30T10:00:37;987.4;;;24.5;41.8
79000;BME280;68406;53.914;27.416;2023-09-30T10:05:31;987.4;;;24.8;41.2
79000;BME280;68406;53.914;27.416;2023-09-30T10:10:37;987.3;;;25.1;40.9
79000;BME280;68406;53.914;27.416;2023-09-30T10:16:01;987.3;;;25.5;40.1
79000;BME280;68406;53.914;27.416;2023-09-30T10:20:49;987.3;;;25.7;39.2
79000;BME280;68406;53.914;27.416;2023-09-30T10:26:14;987.3;;;25.6;38.3
79000;BME280;68406;53.914;27.416;2023-09-30T10:31:07;987.2;;;25.5;38.3
79000;BME280;68406;53.914;27.416;2023-09-30T10:36:07;987.2;;;25.9;38.5
79000;BME280;68406;53.914;27.416;2023-09-30T10:41:11;987.1;;;27.6;36.5
79000;BME280;68406;53.914;27.416;2023-09-30T10:45:43;987;;;29;33.9
79000;BME280;68406;53.914;27.416;2023-09-30T10:51:36;987;;;29.7;32
79000;BME280;68406;53.914;27.416;2023-09-30T10:55:31;987;;;29.9;31.2
79000;BME280;68406;53.914;27.416;2023-09-30T11:00:37;987;;;30.6;30
79000;BME280;68406;53.914;27.416;2023-09-30T11:06:03;986.9;;;31.8;28.4
79000;BME280;68406;53.914;27.416;2023-09-30T11:10:47;986.9;;;32.3;26.5
79000;BME280;68406;53.914;27.416;2023-09-30T11:16:09;986.9;;;32;26.1
79000;BME280;68406;53.914;27.416;2023-09-30T11:21:03;986.9;;;32.2;25.8
79000;BME280;68406;53.914;27.416;2023-09-30T11:25:55;986.8;;;32.7;25.1
79000;BME280;68406;53.914;27.416;2023-09-30T11:31:09;986.8;;;32.6;25
79000;BME280;68406;53.914;27.416;2023-09-30T11:35:55;986.8;;;31.7;25.6
79000;BME280;68406;53.914;27.416;2023-09-30T11:40:31;986.8;;;31;26.3
79000;BME280;68406;53.914;27.416;2023-09-30T11:45:31;986.7;;;30.4;27.1
79000;BME280;68406;53.914;27.416;2023-09-30T11:50:44;986.7;;;30.4;27.3
79000;BME280;68406;53.914;27.416;2023-09-30T11:56:09;986.7;;;30;27.9
79000;BME280;68406;53.914;27.416;2023-09-30T12:00:47;986.7;;;29;28.7
79000;BME280;68406;53.914;27.416;2023-09-30T12:05:49;986.6;;;28.3;29.5
79000;BME280;68406;53.914;27.416;2023-09-30T12:11:01;986.6;;;27.8;30.4
79000;BME280;68406;53.914;27.416;2023-09-30T12:15:55;986.6;;;27.1;31.5
79000;BME280;68406;53.914;27.416;2023-09-30T12:21:09;986.6;;;26.6;32.5
79000;BME280;68406;53.914;27.416;2023-09-30T12:25:57;986.6;;;26.2;33.5
79000;BME280;68406;53.914;27.416;2023-09-30T12:30:37;986.6;;;25.9;34.2
79000;BME280;68406;53.914;27.416;2023-09-30T12:35:31;986.5;;;25.7;34.7
79000;BME280;68406;53.914;27.416;2023-09-30T12:40:39;986.5;;;25.4;35.3
79000;BME280;68406;53.914;27.416;2023-09-30T12:46:09;986.5;;;25.1;36
79000;BME280;68406;53.914;27.416;2023-09-30T12:50:31;986.5;;;25;36.5
79000;BME280;68406;53.914;27.416;2023-09-30T12:55:47;986.6;;;25;36.9
79000;BME280;68406;53.914;27.416;2023-09-30T13:01:01;986.6;;;25;37.3
79000;BME280;68406;53.914;27.416;2023-09-30T13:05:51;986.6;;;25;37.6
79000;BME280;68406;53.914;27.416;2023-09-30T13:10:57;986.6;;;24.9;38.1
79000;BME280;68406;53.914;27.416;2023-09-30T13:15:55;986.6;;;24.7;38.6
79000;BME280;68406;53.914;27.416;2023-09-30T13:20:31;986.6;;;24.6;38.9
79000;BME280;68406;53.914;27.416;2023-09-30T13:26:07;986.6;;;24.3;39.5
79000;BME280;68406;53.914;27.416;2023-09-30T13:30:47;986.5;;;24.1;39.9
79000;BME280;68406;53.914;27.416;2023-09-30T13:36:11;986.5;;;24;40.5
79000;BME280;68406;53.914;27.416;2023-09-30T13:40:41;986.6;;;23.8;41.2
79000;BME280;68406;53.914;27.416;2023-09-30T13:45:49;986.8;;;23.6;42.4
79000;BME280;68406;53.914;27.416;2023-09-30T13:50:33;986.7;;;23.1;43.6
79000;BME280;68406;53.914;27.416;2023-09-30T13:55:57;986.8;;;22.8;44.8
79000;BME280;68406;53.914;27.416;2023-09-30T14:01:09;986.8;;;22.4;46
79000;BME280;68406;53.914;27.416;2023-09-30T14:05:55;986.8;;;22.1;47
79000;BME280;68406;53.914;27.416;2023-09-30T14:10:43;986.8;;;21.8;48.1
79000;BME280;68406;53.914;27.416;2023-09-30T14:15:31;986.9;;;21.5;49.8
79000;BME280;68406;53.914;27.416;2023-09-30T14:20:31;986.9;;;21;51.9
79000;BME280;68406;53.914;27.416;2023-09-30T14:26:11;987;;;20.5;54
79000;BME280;68406;53.914;27.416;2023-09-30T14:30:47;987;;;19.6;58.8
79000;BME280;68406;53.914;27.416;2023-09-30T14:35:47;987;;;18.7;62.3
79000;BME280;68406;53.914;27.416;2023-09-30T14:40:59;987;;;18.6;63.3
79000;BME280;68406;53.914;27.416;2023-09-30T14:45:55;986.9;;;18.7;63.7
79000;BME280;68406;53.914;27.416;2023-09-30T14:51:09;986.9;;;18.7;64.1
79000;BME280;68406;53.914;27.416;2023-09-30T14:55:55;987;;;18.7;64.8
79000;BME280;68406;53.914;27.416;2023-09-30T15:00:31;987;;;18.7;65.7
79000;BME280;68406;53.914;27.416;2023-09-30T15:05:31;986.9;;;18.5;66.6
79000;BME280;68406;53.914;27.416;2023-09-30T15:10:47;986.9;;;18.4;67.9
79000;BME280;68406;53.914;27.416;2023-09-30T15:16:14;986.9;;;18.2;68.9
79000;BME280;68406;53.914;27.416;2023-09-30T15:20:37;986.9;;;18.1;69.7
79000;BME280;68406;53.914;27.416;2023-09-30T15:25:47;986.8;;;18.1;70.5
79000;BME280;68406;53.914;27.416;2023-09-30T15:30:59;986.9;;;18;70.9
79000;BME280;68406;53.914;27.416;2023-09-30T15:35:57;986.9;;;17.9;71.5
79000;BME280;68406;53.914;27.416;2023-09-30T15:41:09;986.9;;;17.8;72.3
79000;BME280;68406;53.914;27.416;2023-09-30T15:45:31;986.9;;;17.7;72.9
79000;BME280;68406;53.914;27.416;2023-09-30T15:50:31;986.9;;;17.7;73.5
79000;BME280;68406;53.914;27.416;2023-09-30T15:55:42;986.8;;;17.6;74
79000;BME280;68406;53.914;27.416;2023-09-30T16:00:47;986.8;;;17.6;74.3
79000;BME280;68406;53.914;27.416;2023-09-30T16:06:09;986.9;;;17.5;74.6
79000;BME280;68406;53.914;27.416;2023-09-30T16:11:09;986.9;;;17.5;74.9
79000;BME280;68406;53.914;27.416;2023-09-30T16:15:47;987;;;17.5;75.1
79000;BME280;68406;53.914;27.416;2023-09-30T16:21:01;987;;;17.4;75.4
79000;BME280;68406;53.914;27.416;2023-09-30T16:25:55;987;;;17.4;75.6
79000;BME280;68406;53.914;27.416;2023-09-30T16:31:11;987;;;17.4;75.7
79000;BME280;68406;53.914;27.416;2023-09-30T16:35:31;986.9;;;17.4;75.7
79000;BME280;68406;53.914;27.416;2023-09-30T16:40:37;986.9;;;17.4;76
79000;BME280;68406;53.914;27.416;2023-09-30T16:45:31;986.9;;;17.3;76.9
79000;BME280;68406;53.914;27.416;2023-09-30T16:50:41;986.9;;;17;78.5
79000;BME280;68406;53.914;27.416;2023-09-30T16:56:09;986.9;;;16.9;79
79000;BME280;68406;53.914;27.416;2023-09-30T17:01:01;986.9;;;16.8;79.4
79000;BME280;68406;53.914;27.416;2023-09-30T17:06:09;986.9;;;16.8;79.2
79000;BME280;68406;53.914;27.416;2023-09-30T17:11:01;987;;;16.7;78.8
79000;BME280;68406;53.914;27.416;2023-09-30T17:15:55;987.2;;;16.7;78.5
79000;BME280;68406;53.914;27.416;2023-09-30T17:20:33;987.1;;;16.6;78.3
79000;BME280;68406;53.914;27.416;2023-09-30T17:25:59;987.1;;;16.6;78.5
79000;BME280;68406;53.914;27.416;2023-09-30T17:30:43;987;;;16.6;78.9
79000;BME280;68406;53.914;27.416;2023-09-30T17:35:35;987;;;16.6;79
79000;BME280;68406;53.914;27.416;2023-09-30T17:40:41;987;;;16.6;79
79000;BME280;68406;53.914;27.416;2023-09-30T17:46:09;987;;;16.6;79
79000;BME280;68406;53.914;27.416;2023-09-30T17:51:01;987;;;16.7;79
79000;BME280;68406;53.914;27.416;2023-09-30T17:55:35;987.2;;;16.7;78.8
79000;BME280;68406;53.914;27.416;2023-09-30T18:01:01;987.5;;;16.5;78.8
79000;BME280;68406;53.914;27.416;2023-09-30T18:06:03;987.4;;;16.1;78.3
79000;BME280;68406;53.914;27.416;2023-09-30T18:11:09;987.4;;;15.9;77.1
79000;BME280;68406;53.914;27.416;2023-09-30T18:15:44;987.4;;;15.8;76.3
79000;BME280;68406;53.914;27.416;2023-09-30T18:20:31;987.4;;;15.8;75.9
79000;BME280;68406;53.914;27.416;2023-09-30T18:25:31;987.5;;;15.8;76.1
79000;BME280;68406;53.914;27.416;2023-09-30T18:30:47;987.5;;;15.8;76.4
79000;BME280;68406;53.914;27.416;2023-09-30T18:36:09;987.5;;;15.8;76.3
79000;BME280;68406;53.914;27.416;2023-09-30T18:40:59;987.6;;;15.7;76
79000;BME280;68406;53.914;27.416;2023-09-30T18:45:49;987.7;;;15.7;75.7
79000;BME280;68406;53.914;27.416;2023-09-30T18:50:49;987.8;;;15.6;75.5
79000;BME280;68406;53.914;27.416;2023-09-30T18:55:49;987.9;;;15.5;75.6
79000;BME280;68406;53.914;27.416;2023-09-30T19:01:01;987.9;;;15.4;75.4
79000;BME280;68406;53.914;27.416;2023-09-30T19:05:31;987.8;;;15.3;75
79000;BME280;68406;53.914;27.416;2023-09-30T19:10:31;987.7;;;15.3;74.7
79000;BME280;68406;53.914;27.416;2023-09-30T19:15:37;987.8;;;15.3;74
79000;BME280;68406;53.914;27.416;2023-09-30T19:20:47;987.8;;;15.3;74.2
79000;BME280;68406;53.914;27.416;2023-09-30T19:26:10;987.9;;;15.3;74.5
79000;BME280;68406;53.914;27.416;2023-09-30T19:31:01;987.8;;;15.3;74.9
79000;BME280;68406;53.914;27.416;2023-09-30T19:35:45;987.8;;;15.3;75.2
79000;BME280;68406;53.914;27.416;2023-09-30T19:41:03;987.8;;;15.3;75
79000;BME280;68406;53.914;27.416;2023-09-30T19:45:57;987.8;;;15.4;74.7
79000;BME280;68406;53.914;27.416;2023-09-30T19:50:51;987.8;;;15.3;74.6
79000;BME280;68406;53.914;27.416;2023-09-30T19:55:37;987.8;;;15.3;74.5
79000;BME280;68406;53.914;27.416;2023-09-30T20:00:32;987.8;;;15.3;74.6
79000;BME280;68406;53.914;27.416;2023-09-30T20:05:57;987.9;;;15.2;74.8
79000;BME280;68406;53.914;27.416;2023-09-30T20:11:19;987.9;;;15.2;75
79000;BME280;68406;53.914;27.416;2023-09-30T20:15:57;987.9;;;15.1;75.4
79000;BME280;68406;53.914;27.416;2023-09-30T20:20:39;987.9;;;15;75.6
79000;BME280;68406;53.914;27.416;2023-09-30T20:25:49;987.9;;;14.9;76.1
79000;BME280;68406;53.914;27.416;2023-09-30T20:31:11;988;;;14.8;76.3
79000;BME280;68406;53.914;27.416;2023-09-30T20:36:11;988;;;14.8;76.8
79000;BME280;68406;53.914;27.416;2023-09-30T20:40:31;988;;;14.7;77.2
79000;BME280;68406;53.914;27.416;2023-09-30T20:45:37;988.1;;;14.7;77.6
79000;BME280;68406;53.914;27.416;2023-09-30T20:50:31;988.1;;;14.7;77.4
79000;BME280;68406;53.914;27.416;2023-09-30T20:55:51;988.1;;;14.6;77.7
79000;BME280;68406;53.914;27.416;2023-09-30T21:01:11;988.1;;;14.7;77.5
79000;BME280;68406;53.914;27.416;2023-09-30T21:06:01;988.1;;;14.6;77.3
79000;BME280;68406;53.914;27.416;2023-09-30T21:10:57;988.1;;;14.5;77.6
79000;BME280;68406;53.914;27.416;2023-09-30T21:15:31;988.1;;;14.5;78
79000;BME280;68406;53.914;27.416;2023-09-30T21:20:31;988.1;;;14.4;78.1
79000;BME280;68406;53.914;27.416;2023-09-30T21:26:11;988.1;;;14.2;78.5
79000;BME280;68406;53.914;27.416;2023-09-30T21:30:37;988.1;;;14.1;78.7
79000;BME280;68406;53.914;27.416;2023-09-30T21:35:41;988.2;;;13.9;79.1
79000;BME280;68406;53.914;27.416;2023-09-30T21:40:51;988.2;;;13.8;79.4
79000;BME280;68406;53.914;27.416;2023-09-30T21:45:55;988.3;;;13.7;79.5
79000;BME280;68406;53.914;27.416;2023-09-30T21:51:09;988.3;;;13.6;79.3
79000;BME280;68406;53.914;27.416;2023-09-30T21:55:57;988.3;;;13.5;78.9
79000;BME280;68406;53.914;27.416;2023-09-30T22:00:57;988.3;;;13.4;78.8
79000;BME280;68406;53.914;27.416;2023-09-30T22:05:31;988.3;;;13.3;79
79000;BME280;68406;53.914;27.416;2023-09-30T22:10:43;988.3;;;13.2;79.2
79000;BME280;68406;53.914;27.416;2023-09-30T22:16:09;988.3;;;13.2;79.1
79000;BME280;68406;53.914;27.416;2023-09-30T22:20:37;988.4;;;13.1;79.3
79000;BME280;68406;53.914;27.416;2023-09-30T22:25:37;988.5;;;13;79.6
79000;BME280;68406;53.914;27.416;2023-09-30T22:30:31;988.5;;;13;79.7
79000;BME280;68406;53.914;27.416;2023-09-30T22:35:57;988.5;;;12.9;80
79000;BME280;68406;53.914;27.416;2023-09-30T22:41:11;988.6;;;12.8;80.1
79000;BME280;68406;53.914;27.416;2023-09-30T22:46:10;988.6;;;12.8;80.3
79000;BME280;68406;53.914;27.416;2023-09-30T22:50:57;988.6;;;12.7;80.5
79000;BME280;68406;53.914;27.416;2023-09-30T22:55:31;988.6;;;12.6;80.6
79000;BME280;68406;53.914;27.416;2023-09-30T23:00:43;988.7;;;12.6;80.6
79000;BME280;68406;53.914;27.416;2023-09-30T23:06:11;988.8;;;12.5;80.6
79000;BME280;68406;53.914;27.416;2023-09-30T23:10:37;988.8;;;12.4;80.8
79000;BME280;68406;53.914;27.416;2023-09-30T23:15:37;988.8;;;12.3;81.1
79000;BME280;68406;53.914;27.416;2023-09-30T23:20:49;988.8;;;12.2;81.2
79000;BME280;68406;53.914;27.416;2023-09-30T23:26:11;988.7;;;12.2;81.4
79000;BME280;68406;53.914;27.416;2023-09-30T23:30:41;988.8;;;12.1;81.4
79000;BME280;68406;53.914;27.416;2023-09-30T23:35:51;988.8;;;12;81.6
79000;BME280;68406;53.914;27.416;2023-09-30T23:40:57;988.8;;;11.9;81.7
79000;BME280;68406;53.914;27.416;2023-09-30T23:45:49;988.8;;;11.8;81.9
79000;BME280;68406;53.914;27.416;2023-09-30T23:50:43;988.7;;;11.8;82.2
79000;BME280;68406;53.914;27.416;2023-09-30T23:56:09;988.8;;;11.7;82.3
